Time;durP1;ratioP1;P1;durP2;ratioP2;P2;SDS_P1;SDS_P2;PMS_P1;PMS_P2;Temp;Humidity;BMP_temperature;BMP_pressure;BME280_temperature;BME280_humidity;BME280_pressure;Samples;Min_cycle;Max_cycle;Signal;HPM_P1;HPM_P2
2023/03/26 00:01:23;;;;;;;12.90;2.50;;;;;3.90;93539.00;;;;7399790;19;20161;-77
2023/03/26 00:03:58;;;;;;;15.10;2.53;;;;;4.00;93543.00;;;;7398242;19;20133;-77
2023/03/26 00:06:37;;;;;;;8.13;2.10;;;;;3.90;93539.00;;;;7397789;19;20139;-78
2023/03/26 00:09:12;;;;;;;11.60;2.60;;;;;3.80;93534.00;;;;7399377;19;20176;-78
2023/03/26 00:11:41;;;;;;;15.43;2.03;;;;;3.80;93548.00;;;;7397987;19;20152;-76
2023/03/26 00:14:16;;;;;;;7.87;2.33;;;;;3.80;93546.00;;;;7399871;19;20141;-76
2023/03/26 00:16:46;;;;;;;10.93;2.20;;;;;3.70;93538.00;;;;7394773;19;20125;-77
2023/03/26 00:19:21;;;;;;;11.77;2.03;;;;;3.70;93548.00;;;;7398866;19;20135;-78
2023/03/26 00:21:50;;;;;;;7.33;1.77;;;;;3.80;93535.00;;;;7397836;19;20742;-77
2023/03/26 00:24:28;;;;;;;7.87;1.90;;;;;3.70;93535.00;;;;7397170;19;20152;-79
2023/03/26 00:27:04;;;;;;;19.60;2.43;;;;;3.80;93524.00;;;;7403680;19;20160;-76
2023/03/26 00:29:32;;;;;;;9.00;2.00;;;;;3.80;93530.00;;;;7403493;19;20125;-78
2023/03/26 00:32:06;;;;;;;9.00;2.37;;;;;4.00;93524.00;;;;7403712;19;20456;-77
2023/03/26 00:34:35;;;;;;;8.00;2.00;;;;;4.00;93525.00;;;;7400018;19;20129;-76
2023/03/26 00:37:13;;;;;;;10.77;2.10;;;;;4.00;93534.00;;;;7401344;19;20140;-77
2023/03/26 00:39:41;;;;;;;10.30;2.20;;;;;3.90;93533.00;;;;7401008;19;20167;-76
2023/03/26 00:42:15;;;;;;;17.23;2.33;;;;;3.70;93523.00;;;;7398615;19;20525;-76
2023/03/26 00:44:53;;;;;;;11.57;2.37;;;;;3.80;93518.00;;;;7398589;19;20156;-76
2023/03/26 00:47:29;;;;;;;12.33;2.17;;;;;3.70;93519.00;;;;7395550;19;20200;-78
2023/03/26 00:50:14;;;;;;;10.57;2.47;;;;;3.60;93513.00;;;;7398487;19;20151;-77
2023/03/26 00:52:48;;;;;;;9.83;2.27;;;;;3.60;93518.00;;;;7400365;19;20137;-76
2023/03/26 00:55:22;;;;;;;10.30;2.07;;;;;3.80;93515.00;;;;7401074;19;20207;-77
2023/03/26 00:57:56;;;;;;;11.33;2.33;;;;;3.60;93527.00;;;;7401459;19;20192;-76
2023/03/26 01:00:33;;;;;;;14.63;2.30;;;;;3.40;93521.00;;;;7394029;19;20160;-77
2023/03/26 01:03:13;;;;;;;5.43;2.03;;;;;3.40;93515.00;;;;7401668;19;20137;-75
2023/03/26 01:06:26;;;;;;;9.23;1.77;;;;;3.30;93507.00;;;;7401984;19;20152;-76
2023/03/26 01:09:16;;;;;;;7.57;1.97;;;;;3.30;93495.00;;;;7400203;19;20156;-77
2023/03/26 01:11:50;;;;;;;7.40;1.90;;;;;3.20;93491.00;;;;7401060;19;20472;-77
2023/03/26 01:14:22;;;;;;;7.30;1.57;;;;;3.10;93485.00;;;;7399424;19;20129;-77
2023/03/26 01:16:59;;;;;;;10.97;2.13;;;;;3.00;93492.00;;;;7400445;19;20155;-75
2023/03/26 01:19:39;;;;;;;11.03;2.53;;;;;3.00;93490.00;;;;7400298;19;20484;-78
2023/03/26 01:22:17;;;;;;;9.57;2.10;;;;;3.00;93493.00;;;;7401071;19;20133;-77
2023/03/26 01:24:51;;;;;;;8.97;2.20;;;;;2.90;93487.00;;;;7401986;19;20133;-77
2023/03/26 01:27:43;;;;;;;9.10;2.27;;;;;2.90;93482.00;;;;7400110;19;20631;-75
2023/03/26 01:30:42;;;;;;;5.97;1.87;;;;;2.90;93483.00;;;;7402100;19;20608;-76
2023/03/26 01:33:39;;;;;;;13.37;2.20;;;;;2.90;93470.00;;;;7398715;19;20152;-74
2023/03/26 01:36:26;;;;;;;7.53;2.10;;;;;2.90;93463.00;;;;7398737;19;20838;-76
2023/03/26 01:39:19;;;;;;;17.70;3.00;;;;;2.90;93450.00;;;;7399528;19;20159;-76
2023/03/26 01:41:50;;;;;;;5.23;2.20;;;;;2.90;93450.00;;;;7399957;19;20847;-77
2023/03/26 01:44:54;;;;;;;7.60;2.23;;;;;2.80;93455.00;;;;7400176;19;20136;-77
2023/03/26 01:47:22;;;;;;;9.40;1.90;;;;;2.70;93440.00;;;;7392033;19;20735;-74
2023/03/26 01:50:03;;;;;;;6.73;1.60;;;;;2.70;93441.00;;;;7397815;19;20170;-77
2023/03/26 01:52:38;;;;;;;41.40;3.40;;;;;2.70;93427.00;;;;7400825;19;20125;-75
2023/03/26 01:55:10;;;;;;;13.17;2.70;;;;;2.70;93431.00;;;;7399125;19;20149;-78
2023/03/26 01:58:17;;;;;;;11.13;2.20;;;;;2.60;93407.00;;;;7394509;19;20132;-75
2023/03/26 02:01:04;;;;;;;18.83;2.70;;;;;2.70;93401.00;;;;7398397;19;20148;-75
2023/03/26 02:03:37;;;;;;;9.87;2.50;;;;;2.80;93397.00;;;;7400982;19;20137;-75
2023/03/26 02:06:36;;;;;;;5.90;2.23;;;;;2.80;93384.00;;;;7398725;19;20612;-76
2023/03/26 02:09:11;;;;;;;6.53;2.20;;;;;3.00;93378.00;;;;7395395;19;20548;-77
2023/03/26 02:11:47;;;;;;;10.10;2.70;;;;;2.90;93380.00;;;;7397627;19;20132;-74
2023/03/26 02:14:15;;;;;;;12.43;2.80;;;;;3.00;93369.00;;;;7398574;19;20137;-77
2023/03/26 02:16:50;;;;;;;8.97;2.37;;;;;3.10;93373.00;;;;7398841;19;20622;-76
2023/03/26 02:19:20;;;;;;;16.93;3.07;;;;;3.00;93371.00;;;;7397038;19;20151;-74
2023/03/26 02:21:58;;;;;;;16.03;2.83;;;;;3.00;93373.00;;;;7399553;19;20137;-75
2023/03/26 02:24:26;;;;;;;9.57;2.47;;;;;2.90;93369.00;;;;7397015;19;20157;-75
2023/03/26 02:27:01;;;;;;;6.57;2.80;;;;;2.90;93369.00;;;;7397965;19;20148;-77
2023/03/26 02:29:29;;;;;;;10.67;2.40;;;;;2.90;93363.00;;;;7397842;19;21070;-75
2023/03/26 02:32:05;;;;;;;12.20;3.10;;;;;2.80;93364.00;;;;7394241;19;21545;-77
2023/03/26 02:34:41;;;;;;;11.93;2.70;;;;;2.80;93366.00;;;;7396707;19;20449;-74
2023/03/26 02:37:17;;;;;;;11.27;3.13;;;;;2.80;93363.00;;;;7394681;19;20167;-77
2023/03/26 02:39:51;;;;;;;10.53;3.00;;;;;2.80;93355.00;;;;7393636;19;20165;-77
2023/03/26 02:42:20;;;;;;;16.53;2.90;;;;;2.90;93359.00;;;;7397365;19;20140;-76
2023/03/26 02:44:54;;;;;;;11.53;3.43;;;;;2.90;93351.00;;;;7397617;19;20629;-77
2023/03/26 02:47:22;;;;;;;10.70;2.60;;;;;2.90;93348.00;;;;7393260;19;20155;-77
2023/03/26 02:49:49;;;;;;;13.60;2.57;;;;;2.80;93339.00;;;;7395025;19;20175;-76
2023/03/26 02:52:30;;;;;;;10.03;2.53;;;;;2.90;93334.00;;;;7398476;19;20453;-77
2023/03/26 02:54:57;;;;;;;8.63;2.67;;;;;3.00;93328.00;;;;7395045;19;20150;-77
2023/03/26 02:57:31;;;;;;;9.17;2.53;;;;;3.00;93323.00;;;;7396880;19;20159;-77
2023/03/26 03:00:07;;;;;;;13.53;3.43;;;;;3.10;93310.00;;;;7396416;19;20558;-77
2023/03/26 03:02:43;;;;;;;11.57;2.63;;;;;3.10;93316.00;;;;7393714;19;20247;-77
2023/03/26 03:05:10;;;;;;;10.27;2.43;;;;;3.10;93316.00;;;;7388706;19;20794;-77
2023/03/26 03:07:45;;;;;;;9.77;2.73;;;;;3.10;93310.00;;;;7395912;19;20611;-75
2023/03/26 03:10:14;;;;;;;8.53;2.47;;;;;3.20;93305.00;;;;7396726;19;20141;-76
2023/03/26 03:12:48;;;;;;;10.47;2.37;;;;;3.10;93303.00;;;;7397177;19;20140;-78
2023/03/26 03:15:22;;;;;;;10.83;2.27;;;;;3.10;93301.00;;;;7396285;19;20603;-77
2023/03/26 03:17:56;;;;;;;12.23;2.70;;;;;3.10;93282.00;;;;7398024;19;20138;-77
2023/03/26 03:20:33;;;;;;;12.30;2.60;;;;;3.20;93276.00;;;;7396189;19;20132;-77
2023/03/26 03:23:01;;;;;;;11.43;2.30;;;;;3.30;93278.00;;;;7396391;19;20144;-76
2023/03/26 03:25:37;;;;;;;7.90;3.30;;;;;3.30;93271.00;;;;7396489;19;20129;-75
2023/03/26 03:28:12;;;;;;;11.77;2.50;;;;;3.20;93275.00;;;;7396166;19;20137;-77
2023/03/26 03:30:47;;;;;;;10.80;2.33;;;;;3.20;93276.00;;;;7395983;19;20136;-77
2023/03/26 03:33:22;;;;;;;12.47;2.60;;;;;3.30;93275.00;;;;7396013;19;20517;-75
2023/03/26 03:35:49;;;;;;;13.27;2.83;;;;;3.40;93283.00;;;;7395246;19;20156;-76
2023/03/26 03:38:18;;;;;;;6.93;2.37;;;;;3.50;93270.00;;;;7395918;19;20129;-77
2023/03/26 03:40:54;;;;;;;12.10;2.93;;;;;3.60;93253.00;;;;7396516;19;20143;-75
2023/03/26 03:43:21;;;;;;;15.90;2.80;;;;;3.60;93255.00;;;;7395720;19;20659;-76
2023/03/26 03:45:55;;;;;;;22.63;3.23;;;;;3.60;93249.00;;;;7394356;19;20543;-74
2023/03/26 03:48:23;;;;;;;12.10;2.63;;;;;3.50;93246.00;;;;7391917;19;20144;-77
2023/03/26 03:51:04;;;;;;;7.83;2.67;;;;;3.60;93255.00;;;;7397426;19;20145;-76
2023/03/26 03:53:35;;;;;;;9.23;2.27;;;;;3.60;93240.00;;;;7401883;19;20132;-77
2023/03/26 03:56:09;;;;;;;8.43;2.40;;;;;3.60;93233.00;;;;7401821;19;20493;-76
2023/03/26 03:58:37;;;;;;;16.70;3.03;;;;;3.60;93229.00;;;;7402121;19;20529;-76
2023/03/26 04:01:12;;;;;;;9.33;2.43;;;;;3.50;93231.00;;;;7401012;19;20140;-76
2023/03/26 04:03:46;;;;;;;14.23;2.50;;;;;3.80;93235.00;;;;7401816;19;20635;-75
2023/03/26 04:06:20;;;;;;;12.50;2.80;;;;;3.90;93224.00;;;;7402143;19;21081;-77
2023/03/26 04:08:56;;;;;;;15.70;3.00;;;;;3.90;93226.00;;;;7402025;19;20147;-77
2023/03/26 04:11:25;;;;;;;12.77;2.97;;;;;4.00;93220.00;;;;7403912;19;20149;-76
2023/03/26 04:13:59;;;;;;;17.23;2.73;;;;;3.90;93205.00;;;;7400530;19;20155;-75
2023/03/26 04:16:33;;;;;;;13.47;2.97;;;;;4.00;93197.00;;;;7402957;19;20196;-75
2023/03/26 04:19:02;;;;;;;10.50;2.93;;;;;3.90;93182.00;;;;7398009;19;20639;-75
2023/03/26 04:21:36;;;;;;;6.17;2.90;;;;;3.80;93188.00;;;;7401271;19;20152;-75
2023/03/26 04:24:11;;;;;;;13.87;2.93;;;;;3.80;93203.00;;;;7402540;19;20153;-76
2023/03/26 04:26:46;;;;;;;14.83;3.07;;;;;4.00;93205.00;;;;7403212;19;20129;-77
2023/03/26 04:29:26;;;;;;;11.33;2.87;;;;;4.00;93205.00;;;;7403808;19;20132;-77
2023/03/26 04:31:57;;;;;;;13.90;2.67;;;;;3.90;93196.00;;;;7400830;19;20144;-78
2023/03/26 04:34:33;;;;;;;13.43;2.80;;;;;3.70;93185.00;;;;7401812;19;20136;-76
2023/03/26 04:37:08;;;;;;;13.93;2.80;;;;;3.70;93188.00;;;;7400617;19;20595;-76
2023/03/26 04:39:44;;;;;;;13.77;2.63;;;;;3.80;93172.00;;;;7401736;19;20141;-75
2023/03/26 04:42:19;;;;;;;13.17;2.87;;;;;3.70;93168.00;;;;7401872;19;20155;-76
2023/03/26 04:44:51;;;;;;;16.37;3.27;;;;;3.90;93168.00;;;;7402200;19;20136;-77
2023/03/26 04:47:35;;;;;;;14.70;3.13;;;;;4.10;93169.00;;;;7402586;19;20128;-77
2023/03/26 04:50:08;;;;;;;13.03;3.10;;;;;4.10;93166.00;;;;7394162;19;20490;-75
2023/03/26 04:52:43;;;;;;;10.57;2.47;;;;;4.10;93175.00;;;;7400667;19;20617;-77
2023/03/26 04:55:38;;;;;;;11.10;3.03;;;;;4.10;93180.00;;;;7398759;19;20469;-76
2023/03/26 04:58:13;;;;;;;12.90;2.73;;;;;4.20;93162.00;;;;7400454;19;20137;-76
2023/03/26 05:00:41;;;;;;;11.83;2.43;;;;;4.20;93160.00;;;;7400217;19;20125;-76
2023/03/26 05:03:16;;;;;;;14.97;3.23;;;;;4.20;93146.00;;;;7399418;19;20621;-76
2023/03/26 05:05:44;;;;;;;11.63;3.10;;;;;4.20;93153.00;;;;7400419;19;20140;-76
2023/03/26 05:08:19;;;;;;;10.70;2.63;;;;;4.20;93124.00;;;;7400724;19;20132;-77
2023/03/26 05:10:46;;;;;;;11.10;2.70;;;;;4.30;93121.00;;;;7400029;19;20639;-75
2023/03/26 05:13:22;;;;;;;8.63;2.60;;;;;4.30;93118.00;;;;7399709;19;20144;-75
2023/03/26 05:15:51;;;;;;;10.73;2.17;;;;;4.20;93111.00;;;;7399166;19;20157;-79
2023/03/26 05:18:25;;;;;;;5.63;2.53;;;;;4.10;93114.00;;;;7399870;19;20599;-77
2023/03/26 05:20:52;;;;;;;11.17;2.80;;;;;4.20;93112.00;;;;7401264;19;20141;-77
2023/03/26 05:23:27;;;;;;;11.50;2.30;;;;;4.30;93108.00;;;;7400334;19;20529;-76
2023/03/26 05:25:56;;;;;;;10.63;2.93;;;;;4.20;93109.00;;;;7400294;19;20133;-75
2023/03/26 05:28:31;;;;;;;7.20;2.70;;;;;4.10;93090.00;;;;7401252;19;20545;-75
2023/03/26 05:31:00;;;;;;;9.00;2.60;;;;;4.10;93101.00;;;;7399682;19;20485;-74
2023/03/26 05:33:34;;;;;;;11.07;2.47;;;;;4.10;93099.00;;;;7400628;19;20468;-76
2023/03/26 05:36:12;;;;;;;8.13;2.20;;;;;4.30;93090.00;;;;7396821;19;20159;-75
2023/03/26 05:38:39;;;;;;;4.97;2.10;;;;;4.30;93071.00;;;;7398952;19;20140;-77
2023/03/26 05:41:14;;;;;;;7.43;2.20;;;;;4.30;93056.00;;;;7400333;19;20584;-77
2023/03/26 05:43:50;;;;;;;8.97;2.40;;;;;4.40;93048.00;;;;7400544;19;20155;-76
2023/03/26 05:46:24;;;;;;;6.33;2.20;;;;;4.20;93050.00;;;;7399016;19;20145;-75
2023/03/26 05:48:58;;;;;;;7.87;1.90;;;;;4.20;93052.00;;;;7395430;19;20160;-74
2023/03/26 05:51:38;;;;;;;9.63;2.20;;;;;4.20;93054.00;;;;7400239;19;20137;-76
2023/03/26 05:54:13;;;;;;;6.40;2.10;;;;;4.20;93046.00;;;;7398255;19;20125;-76
2023/03/26 05:56:47;;;;;;;6.73;2.13;;;;;4.20;93044.00;;;;7398728;19;20141;-75
2023/03/26 05:59:22;;;;;;;9.47;2.00;;;;;4.30;93042.00;;;;7397174;19;20239;-76
2023/03/26 06:01:50;;;;;;;11.63;2.63;;;;;4.30;93033.00;;;;7397574;19;20582;-75
2023/03/26 06:04:24;;;;;;;7.40;2.20;;;;;4.30;93020.00;;;;7399810;19;20191;-76
2023/03/26 06:06:53;;;;;;;4.67;1.93;;;;;4.30;93014.00;;;;7398138;19;20902;-74
2023/03/26 06:09:28;;;;;;;9.30;2.30;;;;;4.30;93009.00;;;;7399900;19;20481;-75
2023/03/26 06:11:55;;;;;;;6.43;2.50;;;;;4.40;93013.00;;;;7397912;19;20129;-78
2023/03/26 06:14:30;;;;;;;8.57;2.77;;;;;4.40;93005.00;;;;7395518;19;20179;-76
2023/03/26 06:16:57;;;;;;;7.47;2.30;;;;;4.70;93006.00;;;;7397250;19;20555;-76
2023/03/26 06:19:32;;;;;;;7.53;2.20;;;;;4.50;92999.00;;;;7397178;19;20144;-75
2023/03/26 06:22:06;;;;;;;4.27;2.30;;;;;4.60;93011.00;;;;7398900;19;20476;-75
2023/03/26 06:24:33;;;;;;;11.50;2.53;;;;;4.60;93019.00;;;;7399240;19;20129;-77
2023/03/26 06:27:01;;;;;;;9.03;2.07;;;;;4.50;93005.00;;;;7397537;19;20623;-76
2023/03/26 06:29:36;;;;;;;5.70;2.07;;;;;4.50;92990.00;;;;7397343;19;20602;-76
2023/03/26 06:32:10;;;;;;;7.50;2.47;;;;;4.40;92986.00;;;;7398020;19;20152;-74
2023/03/26 06:34:46;;;;;;;8.00;2.40;;;;;4.50;92979.00;;;;7398003;19;20188;-75
2023/03/26 06:37:21;;;;;;;12.43;2.97;;;;;4.60;92978.00;;;;7398276;19;20167;-76
2023/03/26 06:39:49;;;;;;;7.40;1.93;;;;;4.30;92971.00;;;;7398263;19;20140;-77
2023/03/26 06:42:23;;;;;;;8.50;2.37;;;;;4.40;92956.00;;;;7397899;19;20133;-75
2023/03/26 06:45:10;;;;;;;4.60;1.83;;;;;4.30;92956.00;;;;7398323;19;20144;-74
2023/03/26 06:47:45;;;;;;;9.87;2.40;;;;;4.40;92945.00;;;;7393833;19;20135;-74
2023/03/26 06:50:19;;;;;;;9.00;2.40;;;;;4.50;92952.00;;;;7382352;19;20168;-74
2023/03/26 06:52:55;;;;;;;8.67;2.50;;;;;4.40;92945.00;;;;7397185;19;20152;-74
2023/03/26 06:55:30;;;;;;;9.03;3.90;;;;;4.40;92943.00;;;;7396643;19;20148;-73
2023/03/26 06:58:04;;;;;;;11.70;2.27;;;;;4.40;92947.00;;;;7396916;19;20459;-73
2023/03/26 07:00:31;;;;;;;9.37;2.13;;;;;4.30;92923.00;;;;7396098;19;20528;-73
2023/03/26 07:03:05;;;;;;;7.67;2.60;;;;;4.30;92917.00;;;;7395856;19;20140;-73
2023/03/26 07:05:40;;;;;;;7.37;2.13;;;;;4.40;92932.00;;;;7395621;19;20161;-75
2023/03/26 07:08:08;;;;;;;7.33;2.27;;;;;4.30;92919.00;;;;7392745;19;20583;-76
2023/03/26 07:10:42;;;;;;;8.47;3.07;;;;;4.20;92906.00;;;;7397285;19;20160;-75
2023/03/26 07:13:09;;;;;;;13.37;2.63;;;;;4.20;92911.00;;;;7396112;19;20165;-75
2023/03/26 07:15:44;;;;;;;10.10;3.10;;;;;4.30;92898.00;;;;7394634;19;20448;-75
2023/03/26 07:22:03;;;;;;;8.73;2.60;;;;;4.30;92888.00;;;;7397966;19;20146;-74
2023/03/26 07:24:37;;;;;;;9.83;2.60;;;;;4.30;92896.00;;;;7393997;19;20132;-78
2023/03/26 07:27:44;;;;;;;7.97;2.53;;;;;4.40;92887.00;;;;7401049;19;20628;-77
2023/03/26 07:30:30;;;;;;;8.57;2.30;;;;;4.30;92887.00;;;;7404707;19;20582;-74
2023/03/26 07:33:44;;;;;;;10.93;2.53;;;;;4.30;92891.00;;;;7405058;19;20599;-75
2023/03/26 07:36:34;;;;;;;11.50;2.90;;;;;4.40;92887.00;;;;7401299;19;20121;-75
2023/03/26 07:39:51;;;;;;;15.93;3.13;;;;;4.40;92874.00;;;;7396816;19;20200;-74
2023/03/26 07:42:31;;;;;;;11.27;2.77;;;;;4.50;92865.00;;;;7400329;19;20141;-75
2023/03/26 07:45:12;;;;;;;9.17;2.60;;;;;4.50;92865.00;;;;7389913;19;20133;-74
2023/03/26 07:47:48;;;;;;;12.43;2.60;;;;;4.50;92860.00;;;;7403152;19;20156;-75
2023/03/26 07:50:24;;;;;;;9.37;2.80;;;;;4.60;92852.00;;;;7398358;19;20180;-74
2023/03/26 07:52:58;;;;;;;12.77;2.60;;;;;4.70;92852.00;;;;7402282;19;20172;-74
2023/03/26 07:55:27;;;;;;;16.97;2.90;;;;;4.60;92849.00;;;;7399193;19;20461;-75
2023/03/26 07:58:24;;;;;;;11.97;2.70;;;;;4.70;92848.00;;;;7396880;19;20160;-76
2023/03/26 08:01:18;;;;;;;7.63;2.93;;;;;4.60;92845.00;;;;7395940;19;20144;-76
2023/03/26 08:04:10;;;;;;;10.03;3.00;;;;;4.70;92841.00;;;;7403669;19;20157;-75
2023/03/26 08:07:07;;;;;;;8.10;2.50;;;;;4.80;92842.00;;;;7401265;19;20204;-75
2023/03/26 08:10:19;;;;;;;7.40;2.80;;;;;4.60;92833.00;;;;7399493;19;20136;-76
2023/03/26 08:13:16;;;;;;;15.10;3.03;;;;;4.80;92838.00;;;;7398548;19;20172;-74
2023/03/26 08:16:08;;;;;;;13.10;3.30;;;;;4.90;92829.00;;;;7400944;19;20137;-76
2023/03/26 08:18:59;;;;;;;11.77;3.30;;;;;4.70;92834.00;;;;7401745;19;20125;-76
2023/03/26 08:21:41;;;;;;;9.57;3.10;;;;;4.80;92835.00;;;;7400547;19;20479;-76
2023/03/26 08:24:33;;;;;;;8.63;2.67;;;;;4.80;92828.00;;;;7400185;19;20164;-75
2023/03/26 08:27:17;;;;;;;8.50;2.80;;;;;4.80;92831.00;;;;7399981;19;20234;-74
2023/03/26 08:30:08;;;;;;;4.70;2.63;;;;;4.90;92829.00;;;;7400588;19;20143;-74
2023/03/26 08:32:36;;;;;;;10.73;3.00;;;;;4.90;92825.00;;;;7401810;19;20149;-76
2023/03/26 08:35:15;;;;;;;6.70;2.70;;;;;5.00;92823.00;;;;7400732;19;20155;-74
2023/03/26 08:37:51;;;;;;;6.10;2.60;;;;;5.10;92823.00;;;;7398514;19;20129;-73
2023/03/26 08:41:08;;;;;;;6.03;2.93;;;;;5.30;92817.00;;;;7400092;19;20134;-74
2023/03/26 08:44:12;;;;;;;7.27;2.83;;;;;5.70;92822.00;;;;7401947;19;20136;-75
2023/03/26 08:46:59;;;;;;;8.40;2.60;;;;;5.80;92813.00;;;;7402393;19;20164;-76
2023/03/26 08:50:11;;;;;;;7.20;2.83;;;;;5.70;92818.00;;;;7400802;19;20524;-75
2023/03/26 08:53:40;;;;;;;5.70;2.60;;;;;6.00;92814.00;;;;7398866;19;20137;-75
2023/03/26 08:56:30;;;;;;;9.07;2.37;;;;;6.30;92816.00;;;;7395096;19;20475;-75
2023/03/26 08:59:31;;;;;;;7.47;2.30;;;;;6.40;92809.00;;;;7398132;19;20467;-74
2023/03/26 09:02:13;;;;;;;5.60;2.33;;;;;6.90;92814.00;;;;7396818;19;20519;-74
2023/03/26 09:05:29;;;;;;;7.40;4.00;;;;;6.70;92813.00;;;;7397076;19;20146;-74
2023/03/26 09:08:29;;;;;;;16.67;9.47;;;;;7.10;92809.00;;;;7398188;19;20212;-73
2023/03/26 09:11:45;;;;;;;5.37;1.80;;;;;6.90;92809.00;;;;7397956;19;20117;-77
2023/03/26 09:14:55;;;;;;;2.43;1.50;;;;;6.90;92817.00;;;;7394969;19;20160;-75
2023/03/26 09:18:01;;;;;;;1.47;1.30;;;;;6.90;92811.00;;;;7399687;19;20237;-76
2023/03/26 09:21:02;;;;;;;3.00;1.77;;;;;7.10;92809.00;;;;7400615;19;20154;-75
2023/03/26 09:23:56;;;;;;;4.87;1.27;;;;;7.90;92813.00;;;;7397921;19;20228;-74
2023/03/26 09:26:34;;;;;;;3.37;1.60;;;;;8.10;92807.00;;;;7396588;19;20156;-74
2023/03/26 09:29:44;;;;;;;4.20;1.37;;;;;8.50;92815.00;;;;7398640;19;20583;-75
2023/03/26 09:32:46;;;;;;;4.60;1.30;;;;;8.50;92806.00;;;;7401067;19;20144;-75
2023/03/26 09:35:40;;;;;;;2.27;0.83;;;;;8.30;92816.00;;;;7398745;19;20155;-73
2023/03/26 09:38:35;;;;;;;1.97;1.40;;;;;8.30;92806.00;;;;7395839;19;20127;-74
2023/03/26 09:41:21;;;;;;;3.97;1.30;;;;;8.30;92817.00;;;;7396161;19;20595;-73
2023/03/26 09:44:04;;;;;;;2.43;1.00;;;;;7.70;92812.00;;;;7396798;19;20116;-74
2023/03/26 09:47:18;;;;;;;4.80;1.10;;;;;7.30;92826.00;;;;7399037;19;20626;-75
2023/03/26 09:50:13;;;;;;;2.77;0.93;;;;;7.40;92824.00;;;;7396521;19;20152;-75
2023/03/26 09:53:06;;;;;;;2.87;0.97;;;;;7.50;92773.00;;;;7398208;19;20663;-76
2023/03/26 09:55:44;;;;;;;5.00;1.27;;;;;7.50;92821.00;;;;7395631;19;20266;-76
2023/03/26 09:58:42;;;;;;;4.57;1.03;;;;;7.90;92815.00;;;;7397934;19;20129;-76
2023/03/26 10:01:39;;;;;;;3.90;1.73;;;;;7.50;92813.00;;;;7393687;19;20164;-74
2023/03/26 10:04:41;;;;;;;2.13;0.70;;;;;7.30;92819.00;;;;7395506;19;20215;-74
2023/03/26 10:07:37;;;;;;;2.47;1.03;;;;;7.40;92797.00;;;;7397060;19;20132;-77
2023/03/26 10:10:25;;;;;;;3.10;0.90;;;;;8.30;92808.00;;;;7397856;19;20148;-77
2023/03/26 10:13:09;;;;;;;2.70;0.87;;;;;8.90;92794.00;;;;7398715;19;20576;-76
2023/03/26 10:15:52;;;;;;;2.72;1.00;;;;;8.80;92770.00;;;;7393907;19;20174;-75
2023/03/26 10:18:41;;;;;;;2.60;0.90;;;;;9.90;92774.00;;;;7394223;19;20592;-75
2023/03/26 10:21:12;;;;;;;2.65;1.00;;;;;11.50;92762.00;;;;7397305;19;20129;-74
2023/03/26 10:23:53;;;;;;;2.78;0.98;;;;;11.50;92758.00;;;;7396249;19;20584;-75
2023/03/26 10:26:29;;;;;;;1.30;0.90;;;;;12.10;92782.00;;;;7395147;19;20133;-74
2023/03/26 10:29:34;;;;;;;1.67;0.93;;;;;12.10;92767.00;;;;7397056;19;20154;-76
2023/03/26 10:32:36;;;;;;;1.65;0.70;;;;;11.80;92758.00;;;;7396050;19;20641;-77
2023/03/26 10:35:11;;;;;;;1.17;0.70;;;;;11.70;92776.00;;;;7394609;19;20177;-75
2023/03/26 10:38:12;;;;;;;0.85;0.70;;;;;12.20;92787.00;;;;7397088;19;20133;-75
2023/03/26 10:41:03;;;;;;;1.20;0.70;;;;;11.70;92758.00;;;;7398340;19;20136;-72
2023/03/26 10:43:53;;;;;;;1.98;1.27;;;;;12.30;92773.00;;;;7397871;19;20124;-76
2023/03/26 10:47:04;;;;;;;2.67;1.00;;;;;13.10;92741.00;;;;7397480;19;20139;-74
2023/03/26 10:49:51;;;;;;;0.95;0.70;;;;;12.70;92751.00;;;;7397466;19;20526;-73
2023/03/26 10:52:30;;;;;;;1.92;0.80;;;;;12.10;92745.00;;;;7397608;19;20128;-73
2023/03/26 10:55:26;;;;;;;1.80;1.00;;;;;13.00;92743.00;;;;7389205;19;20171;-74
2023/03/26 10:58:23;;;;;;;1.77;0.70;;;;;12.30;92753.00;;;;7388768;19;20232;-73
2023/03/26 11:01:23;;;;;;;2.15;0.80;;;;;12.80;92752.00;;;;7394202;19;20156;-74
2023/03/26 11:04:00;;;;;;;2.20;1.20;;;;;12.40;92752.00;;;;7403278;19;20136;-75
2023/03/26 11:07:00;;;;;;;2.15;1.90;;;;;12.90;92744.00;;;;7404058;19;20151;-72
2023/03/26 11:10:01;;;;;;;4.45;1.05;;;;;11.40;92748.00;;;;7403153;19;20148;-74
2023/03/26 11:13:04;;;;;;;1.70;0.80;;;;;12.90;92748.00;;;;7404478;19;20135;-75
2023/03/26 11:15:53;;;;;;;1.08;0.47;;;;;12.70;92756.00;;;;7405485;19;20132;-74
2023/03/26 11:18:46;;;;;;;2.17;0.80;;;;;12.50;92694.00;;;;7403397;19;20602;-73
2023/03/26 11:22:01;;;;;;;1.83;0.77;;;;;12.20;92744.00;;;;7405023;19;20244;-74
2023/03/26 11:25:13;;;;;;;1.65;0.73;;;;;13.40;92746.00;;;;7399753;19;20178;-75
2023/03/26 11:27:52;;;;;;;0.90;0.75;;;;;12.50;92774.00;;;;7399974;19;20188;-72
2023/03/26 11:30:51;;;;;;;2.55;0.73;;;;;12.00;92781.00;;;;7399476;19;20171;-72
2023/03/26 11:33:33;;;;;;;4.55;0.95;;;;;11.20;92789.00;;;;7403029;19;20202;-73
2023/03/26 11:36:07;;;;;;;1.10;0.80;;;;;10.70;92775.00;;;;7399691;19;20557;-74
2023/03/26 11:38:45;;;;;;;1.55;0.75;;;;;10.60;92752.00;;;;7401942;19;20625;-73
2023/03/26 11:41:26;;;;;;;3.85;1.00;;;;;11.30;92788.00;;;;7398093;19;20132;-74
2023/03/26 11:44:20;;;;;;;2.05;0.80;;;;;11.00;92768.00;;;;7400317;19;20136;-73
2023/03/26 11:47:03;;;;;;;1.40;0.68;;;;;12.20;92787.00;;;;7399436;19;20121;-74
2023/03/26 11:49:38;;;;;;;2.92;0.73;;;;;11.10;92799.00;;;;7399489;19;20173;-73
2023/03/26 11:52:14;;;;;;;1.88;0.70;;;;;10.70;92790.00;;;;7402157;19;20153;-74
2023/03/26 11:54:47;;;;;;;1.75;0.73;;;;;10.80;92781.00;;;;7400556;19;20644;-74
2023/03/26 11:57:25;;;;;;;1.52;0.85;;;;;11.10;92774.00;;;;7400769;19;20154;-74
2023/03/26 12:00:09;;;;;;;4.55;1.65;;;;;10.70;92796.00;;;;7403007;19;20137;-75
2023/03/26 12:02:47;;;;;;;3.85;1.13;;;;;10.40;92797.00;;;;7401424;19;20201;-75
2023/03/26 12:05:25;;;;;;;3.75;1.83;;;;;12.10;92750.00;;;;7403077;19;20154;-75
2023/03/26 12:08:03;;;;;;;3.10;1.42;;;;;13.60;92761.00;;;;7404605;19;20149;-72
2023/03/26 12:10:41;;;;;;;4.25;2.47;;;;;12.20;92791.00;;;;7401251;19;20151;-74
2023/03/26 12:13:40;;;;;;;4.75;1.92;;;;;12.20;92764.00;;;;7392995;19;20161;-75
2023/03/26 12:16:17;;;;;;;2.13;1.00;;;;;12.00;92765.00;;;;7397657;19;20152;-75
2023/03/26 12:19:17;;;;;;;3.65;1.30;;;;;11.90;92771.00;;;;7395176;19;20151;-74
2023/03/26 12:21:47;;;;;;;3.75;2.60;;;;;11.70;92797.00;;;;7397367;19;20628;-74
2023/03/26 12:24:32;;;;;;;3.08;1.40;;;;;11.50;92788.00;;;;7396242;19;20156;-75
2023/03/26 12:27:27;;;;;;;8.75;3.58;;;;;12.00;92750.00;;;;7396616;19;20141;-74
2023/03/26 12:30:18;;;;;;;5.03;2.42;;;;;12.70;92777.00;;;;7393878;19;20136;-74
2023/03/26 12:33:02;;;;;;;6.47;4.78;;;;;12.90;92744.00;;;;7390845;19;20129;-75
2023/03/26 12:35:33;;;;;;;4.72;2.50;;;;;14.80;92749.00;;;;7392132;19;21002;-74
2023/03/26 12:38:34;;;;;;;4.15;1.70;;;;;13.60;92770.00;;;;7387248;19;20135;-72
2023/03/26 12:41:11;;;;;;;3.13;1.70;;;;;12.20;92766.00;;;;7392378;19;20132;-73
2023/03/26 12:44:22;;;;;;;2.75;1.50;;;;;11.40;92746.00;;;;7387859;19;20148;-74
2023/03/26 12:47:30;;;;;;;3.35;1.50;;;;;11.70;92722.00;;;;7391171;19;20125;-74
2023/03/26 12:50:43;;;;;;;5.07;2.30;;;;;13.40;92732.00;;;;7388688;19;20168;-72
2023/03/26 12:53:53;;;;;;;2.38;1.15;;;;;13.40;92762.00;;;;7388821;19;20227;-72
2023/03/26 12:57:07;;;;;;;4.55;1.88;;;;;12.80;92710.00;;;;7392074;19;20141;-73
2023/03/26 13:00:09;;;;;;;2.45;1.40;;;;;13.60;92731.00;;;;7388374;19;20155;-74
2023/03/26 13:03:15;;;;;;;5.07;1.80;;;;;14.10;92702.00;;;;7383603;19;20163;-73
2023/03/26 13:06:03;;;;;;;5.60;2.20;;;;;15.70;92695.00;;;;7388830;19;20147;-73
2023/03/26 13:08:59;;;;;;;6.22;2.35;;;;;15.30;92728.00;;;;7385991;19;20515;-72
2023/03/26 13:12:06;;;;;;;3.38;2.65;;;;;14.20;92700.00;;;;7389147;19;20141;-71
2023/03/26 13:15:08;;;;;;;9.65;5.22;;;;;13.90;92719.00;;;;7388367;19;20156;-74
2023/03/26 13:17:48;;;;;;;4.93;2.80;;;;;12.60;92716.00;;;;7387327;19;20164;-74
2023/03/26 13:20:54;;;;;;;3.50;0.85;;;;;11.20;92741.00;;;;7390062;19;20136;-72
2023/03/26 13:23:48;;;;;;;3.72;2.33;;;;;11.50;92688.00;;;;7385692;19;20527;-74
2023/03/26 13:26:27;;;;;;;6.97;3.17;;;;;13.30;92735.00;;;;7388474;19;20603;-74
2023/03/26 13:29:16;;;;;;;5.95;4.05;;;;;13.90;92679.00;;;;7386493;19;20149;-72
2023/03/26 13:32:21;;;;;;;2.85;1.30;;;;;14.60;92703.00;;;;7385822;19;20599;-72
2023/03/26 13:34:56;;;;;;;2.22;1.27;;;;;13.20;92736.00;;;;7386623;19;20137;-72
2023/03/26 13:37:42;;;;;;;2.55;1.13;;;;;12.70;92743.00;;;;7387841;19;20159;-73
2023/03/26 13:40:40;;;;;;;2.90;1.15;;;;;12.10;92730.00;;;;7386429;19;20140;-71